createdAt,value
2022-12-27T00:00:14.559Z,38.07
2022-12-27T00:03:17.620Z,37.60
2022-12-27T00:06:23.083Z,37.13
2022-12-27T00:09:25.608Z,38.15
2022-12-27T00:12:28.425Z,34.97
2022-12-27T00:15:31.075Z,34.00
2022-12-27T00:18:34.408Z,39.03
2022-12-27T00:21:37.005Z,32.72
2022-12-27T00:24:40.260Z,33.00
2022-12-27T00:27:42.849Z,34.30
2022-12-27T00:30:45.614Z,34.50
2022-12-27T00:33:49.842Z,33.72
2022-12-27T00:36:52.664Z,37.58
2022-12-27T00:39:55.619Z,34.40
2022-12-27T00:42:58.662Z,33.10
2022-12-27T00:46:01.999Z,37.37
2022-12-27T00:49:04.995Z,36.40
2022-12-27T00:52:08.318Z,34.33
2022-12-27T00:55:11.846Z,33.83
2022-12-27T00:58:14.410Z,29.40
2022-12-27T01:01:19.421Z,33.53
2022-12-27T01:04:22.231Z,32.80
2022-12-27T01:07:25.039Z,30.10
2022-12-27T01:10:27.667Z,28.12
2022-12-27T01:13:31.378Z,33.37
2022-12-27T01:16:34.946Z,29.03
2022-12-27T01:19:38.466Z,26.35
2022-12-27T01:22:41.061Z,28.98
2022-12-27T01:25:43.906Z,26.92
2022-12-27T01:28:47.250Z,17.67
2022-12-27T01:31:50.260Z,25.00
2022-12-27T01:34:52.885Z,25.15
2022-12-27T01:37:55.725Z,22.45
2022-12-27T01:40:58.822Z,21.33
2022-12-27T01:44:01.693Z,21.53
2022-12-27T01:47:07.871Z,18.97
2022-12-27T01:50:29.056Z,18.40
2022-12-27T01:53:35.206Z,13.70
2022-12-27T01:56:38.189Z,18.52
2022-12-27T01:59:41.041Z,19.10
2022-12-27T02:02:44.067Z,18.07
2022-12-27T02:05:47.158Z,18.80
2022-12-27T02:08:58.212Z,16.45
2022-12-27T02:12:02.160Z,16.02
2022-12-27T02:15:05.104Z,18.90
2022-12-27T02:18:08.087Z,18.63
2022-12-27T02:21:25.985Z,17.15
2022-12-27T02:25:10.588Z,17.87
2022-12-27T02:28:42.483Z,16.33
2022-12-27T02:32:06.647Z,14.60
2022-12-27T02:35:15.759Z,16.97
2022-12-27T02:38:31.345Z,15.45
2022-12-27T02:41:54.121Z,13.93
2022-12-27T02:44:59.743Z,15.25
2022-12-27T02:48:21.405Z,14.43
2022-12-27T02:52:02.982Z,13.17
2022-12-27T02:55:36.086Z,13.15
2022-12-27T02:58:57.072Z,12.65
2022-12-27T03:02:30.572Z,12.13
2022-12-27T03:06:16.464Z,12.80
2022-12-27T03:09:38.957Z,11.37
2022-12-27T03:13:03.639Z,7.97
2022-12-27T03:16:11.980Z,6.90
2022-12-27T03:19:39.604Z,4.72
2022-12-27T03:23:02.237Z,4.37
2022-12-27T03:26:05.903Z,2.87
2022-12-27T03:29:27.621Z,2.05
2022-12-27T03:32:49.060Z,1.87
2022-12-27T03:36:15.219Z,0.93
2022-12-27T03:39:35.032Z,2.60
2022-12-27T03:43:11.929Z,2.20
2022-12-27T03:46:35.204Z,2.45
2022-12-27T03:50:13.322Z,1.60
2022-12-27T03:53:23.884Z,1.52
2022-12-27T03:56:26.625Z,1.40
2022-12-27T03:59:29.613Z,1.50
2022-12-27T04:02:32.297Z,1.55
2022-12-27T04:05:35.409Z,2.45
2022-12-27T04:08:56.347Z,2.40
2022-12-27T04:12:17.675Z,1.60
2022-12-27T04:15:38.932Z,1.93
2022-12-27T04:19:00.724Z,1.60
2022-12-27T04:22:22.354Z,1.08
2022-12-27T04:25:45.222Z,1.10
2022-12-27T04:29:06.556Z,2.30
2022-12-27T04:32:27.619Z,1.10
2022-12-27T04:35:30.149Z,1.25
2022-12-27T04:38:33.271Z,0.98
2022-12-27T04:41:54.614Z,1.10
2022-12-27T04:45:15.791Z,1.00
2022-12-27T04:48:36.733Z,0.70
2022-12-27T04:52:14.904Z,1.02
2022-12-27T04:55:25.832Z,1.92
2022-12-27T04:58:29.280Z,1.67
2022-12-27T05:01:50.868Z,1.03
2022-12-27T05:04:54.079Z,5.63
2022-12-27T05:08:16.319Z,1.27
2022-12-27T05:11:38.220Z,1.33
2022-12-27T05:14:40.730Z,1.00
2022-12-27T05:17:43.540Z,1.33
2022-12-27T05:20:46.146Z,1.00
2022-12-27T05:24:07.936Z,1.37
2022-12-27T05:27:10.433Z,1.10
2022-12-27T05:30:13.343Z,0.90
2022-12-27T05:33:15.944Z,0.90
2022-12-27T05:36:19.259Z,1.50
2022-12-27T05:39:21.761Z,0.90
2022-12-27T05:42:24.579Z,1.33
2022-12-27T05:45:27.959Z,0.90
2022-12-27T05:48:31.035Z,1.43
2022-12-27T05:51:33.685Z,1.80
2022-12-27T05:54:36.500Z,2.97
2022-12-27T05:57:39.266Z,1.52
2022-12-27T06:00:42.172Z,1.45
2022-12-27T06:03:45.422Z,1.03
2022-12-27T06:06:47.938Z,1.30
2022-12-27T06:09:50.885Z,3.45
2022-12-27T06:12:53.451Z,1.65
2022-12-27T06:15:59.747Z,2.92
2022-12-27T06:19:02.469Z,1.97
2022-12-27T06:22:05.530Z,1.37
2022-12-27T06:25:12.412Z,2.40
2022-12-27T06:28:17.094Z,1.02
2022-12-27T06:31:20.435Z,0.85
2022-12-27T06:34:23.348Z,1.10
2022-12-27T06:37:25.893Z,1.20
2022-12-27T06:40:28.718Z,0.85
2022-12-27T06:43:31.353Z,0.70
2022-12-27T06:46:34.184Z,1.62
2022-12-27T06:49:37.350Z,1.23
2022-12-27T06:52:40.196Z,1.63
2022-12-27T06:55:42.898Z,1.60
2022-12-27T06:58:50.348Z,1.27
2022-12-27T07:01:53.218Z,1.62
2022-12-27T07:04:56.262Z,1.23
2022-12-27T07:07:59.120Z,2.00
2022-12-27T07:11:04.016Z,1.08
2022-12-27T07:14:09.070Z,1.58
2022-12-27T07:17:12.148Z,1.42
2022-12-27T07:20:14.692Z,1.20
2022-12-27T07:23:19.494Z,0.73
2022-12-27T07:26:24.673Z,0.93
2022-12-27T07:29:27.900Z,1.20
2022-12-27T07:32:30.575Z,1.23
2022-12-27T07:35:33.460Z,1.00
2022-12-27T07:38:36.234Z,1.30
2022-12-27T07:41:39.185Z,1.52
2022-12-27T07:44:42.537Z,1.30
2022-12-27T07:47:45.338Z,2.20
2022-12-27T07:50:57.146Z,6.50
2022-12-27T07:54:00.741Z,6.90
2022-12-27T07:57:03.404Z,2.90
2022-12-27T08:00:06.998Z,3.50
2022-12-27T08:03:14.550Z,4.40
2022-12-27T08:06:28.989Z,1.90
2022-12-27T08:09:35.140Z,1.90
2022-12-27T08:12:38.165Z,2.35
2022-12-27T08:15:42.042Z,0.95
2022-12-27T08:18:45.712Z,0.90
2022-12-27T08:21:48.303Z,1.40
2022-12-27T08:24:51.245Z,1.50
2022-12-27T08:27:53.718Z,1.75
2022-12-27T08:30:56.543Z,1.33
2022-12-27T08:33:59.119Z,1.83
2022-12-27T08:37:01.958Z,1.67
2022-12-27T08:40:05.023Z,2.03
2022-12-27T08:43:08.864Z,2.05
2022-12-27T08:46:11.447Z,1.02
2022-12-27T08:49:14.310Z,1.42
2022-12-27T08:52:16.898Z,2.23
2022-12-27T08:55:19.723Z,1.63
2022-12-27T08:58:22.697Z,1.30
2022-12-27T09:01:26.066Z,1.27
2022-12-27T09:04:29.077Z,2.12
2022-12-27T09:07:32.336Z,3.37
2022-12-27T09:10:34.820Z,2.47
2022-12-27T09:13:38.323Z,1.62
2022-12-27T09:16:40.914Z,1.35
2022-12-27T09:19:43.829Z,1.20
2022-12-27T09:22:46.633Z,1.20
2022-12-27T09:25:49.510Z,1.20
2022-12-27T09:28:53.363Z,3.15
2022-12-27T09:31:56.271Z,3.12
2022-12-27T09:34:58.810Z,3.33
2022-12-27T09:38:02.709Z,1.93
2022-12-27T09:41:11.588Z,3.07
2022-12-27T09:44:23.569Z,2.00
2022-12-27T09:47:34.309Z,4.40
2022-12-27T09:50:57.597Z,3.03
2022-12-27T09:54:15.372Z,3.13
2022-12-27T09:57:23.568Z,4.60
2022-12-27T10:00:34.839Z,5.45
2022-12-27T10:03:38.464Z,11.27
2022-12-27T10:06:49.852Z,11.65
2022-12-27T10:10:10.899Z,3.83
2022-12-27T10:13:23.800Z,13.07
2022-12-27T10:16:40.967Z,2.28
2022-12-27T10:19:49.902Z,2.45
2022-12-27T10:22:55.529Z,3.30
2022-12-27T10:26:13.256Z,4.93
2022-12-27T10:29:21.041Z,1.90
2022-12-27T10:32:23.739Z,3.45
2022-12-27T10:35:28.965Z,2.08
2022-12-27T10:38:34.933Z,5.45
2022-12-27T10:42:05.644Z,3.80
2022-12-27T10:45:29.429Z,3.97
2022-12-27T10:48:41.499Z,4.82
2022-12-27T10:51:58.192Z,4.03
2022-12-27T10:55:01.064Z,1.60
2022-12-27T10:58:26.410Z,2.10
2022-12-27T11:01:31.032Z,2.10
2022-12-27T11:04:56.045Z,1.27
2022-12-27T11:07:59.147Z,2.00
2022-12-27T11:11:17.908Z,1.98
2022-12-27T11:14:21.027Z,3.40
2022-12-27T11:17:30.058Z,2.40
2022-12-27T11:20:53.873Z,2.67
2022-12-27T11:23:59.352Z,2.53
2022-12-27T11:27:02.648Z,1.75
2022-12-27T11:30:05.873Z,5.60
2022-12-27T11:33:41.318Z,3.87
2022-12-27T11:36:46.447Z,3.05
2022-12-27T11:39:52.619Z,2.00
2022-12-27T11:43:04.124Z,1.55
2022-12-27T11:46:24.145Z,1.90
2022-12-27T11:49:31.603Z,5.53
2022-12-27T11:52:40.213Z,2.85
2022-12-27T11:56:01.510Z,4.05
2022-12-27T11:59:13.328Z,1.80
2022-12-27T12:02:31.102Z,3.50
2022-12-27T12:05:44.868Z,1.90
2022-12-27T12:09:07.853Z,1.55
2022-12-27T12:12:23.076Z,5.37
2022-12-27T12:15:44.235Z,1.60
2022-12-27T12:19:31.046Z,2.90
2022-12-27T12:22:45.770Z,5.77
2022-12-27T12:25:54.331Z,4.22
2022-12-27T12:29:52.363Z,6.20
2022-12-27T12:33:00.932Z,5.72
2022-12-27T12:36:06.441Z,2.57
2022-12-27T12:39:21.181Z,3.70
2022-12-27T12:42:45.325Z,5.20
2022-12-27T12:46:11.115Z,5.93
2022-12-27T12:50:07.952Z,2.45
2022-12-27T12:53:34.211Z,1.73
2022-12-27T12:56:43.488Z,1.93
2022-12-27T13:00:01.338Z,4.37
2022-12-27T13:03:35.037Z,3.00
2022-12-27T13:06:47.114Z,5.72
2022-12-27T13:10:06.115Z,3.13
2022-12-27T13:13:14.796Z,3.23
2022-12-27T13:16:44.676Z,2.10
2022-12-27T13:20:07.925Z,2.97
2022-12-27T13:23:23.044Z,5.97
2022-12-27T13:26:50.658Z,2.83
2022-12-27T13:30:15.016Z,2.03
2022-12-27T13:33:39.639Z,1.77
2022-12-27T13:36:56.361Z,1.83
2022-12-27T13:40:14.438Z,1.62
2022-12-27T13:43:37.114Z,1.20
2022-12-27T13:47:01.832Z,2.77
2022-12-27T13:50:23.931Z,1.60
2022-12-27T13:53:51.849Z,1.70
2022-12-27T13:57:01.520Z,2.97
2022-12-27T14:00:09.155Z,2.83
2022-12-27T14:03:15.076Z,6.60
2022-12-27T14:06:34.316Z,18.10
2022-12-27T14:10:04.644Z,12.82
2022-12-27T14:13:08.628Z,6.95
2022-12-27T14:16:33.019Z,5.27
2022-12-27T14:19:47.538Z,3.37
2022-12-27T14:23:08.847Z,2.83
2022-12-27T14:26:41.891Z,3.12
2022-12-27T14:30:12.538Z,4.30
2022-12-27T14:33:33.155Z,7.13
2022-12-27T14:37:00.941Z,8.37
2022-12-27T14:40:15.660Z,7.00
2022-12-27T14:43:39.788Z,10.98
2022-12-27T14:47:01.519Z,26.00
2022-12-27T14:50:26.113Z,34.27
2022-12-27T14:53:34.520Z,28.13
2022-12-27T14:56:44.916Z,30.00
2022-12-27T15:00:15.991Z,37.17
2022-12-27T15:03:41.468Z,64.37
2022-12-27T15:06:55.397Z,47.23
2022-12-27T15:10:14.756Z,38.43
2022-12-27T15:13:39.790Z,36.70
2022-12-27T15:17:00.592Z,30.98
2022-12-27T15:20:41.362Z,23.77
2022-12-27T15:23:55.746Z,9.97
2022-12-27T15:27:01.010Z,11.87
2022-12-27T15:30:22.138Z,5.28
2022-12-27T15:33:24.699Z,9.48
2022-12-27T15:36:45.118Z,4.03
2022-12-27T15:39:48.858Z,5.73
2022-12-27T15:43:02.306Z,6.00
2022-12-27T15:46:52.710Z,18.37
2022-12-27T15:50:04.630Z,36.67
2022-12-27T15:53:38.249Z,24.12
2022-12-27T15:56:49.190Z,20.07
2022-12-27T16:00:18.163Z,16.83
2022-12-27T16:03:39.288Z,23.45
2022-12-27T16:06:50.154Z,28.80
2022-12-27T16:09:53.243Z,31.30
2022-12-27T16:13:21.080Z,46.50
2022-12-27T16:16:27.058Z,32.60
2022-12-27T16:19:52.264Z,27.73
2022-12-27T16:22:58.877Z,25.62
2022-12-27T16:26:01.335Z,20.83
2022-12-27T16:29:14.209Z,15.53
2022-12-27T16:32:22.068Z,15.20
2022-12-27T16:35:24.927Z,21.10
2022-12-27T16:38:30.455Z,33.05
2022-12-27T16:41:42.244Z,27.45
2022-12-27T16:45:03.845Z,17.77
2022-12-27T16:48:48.446Z,7.17
2022-12-27T16:52:12.635Z,9.10
2022-12-27T16:55:15.749Z,11.15
2022-12-27T16:58:18.251Z,5.65
2022-12-27T17:01:36.237Z,4.70
2022-12-27T17:04:56.568Z,7.23
2022-12-27T17:08:00.048Z,5.72
2022-12-27T17:11:25.148Z,3.85
2022-12-27T17:14:36.533Z,17.12
2022-12-27T17:17:39.026Z,19.27
2022-12-27T17:20:44.368Z,4.27
2022-12-27T17:23:49.025Z,7.43
2022-12-27T17:27:09.967Z,2.87
2022-12-27T17:30:23.016Z,1.17
2022-12-27T17:33:53.632Z,2.80
2022-12-27T17:36:58.795Z,9.70
2022-12-27T17:40:05.650Z,8.23
2022-12-27T17:44:01.117Z,10.98
2022-12-27T17:47:24.454Z,11.48
2022-12-27T17:50:29.152Z,12.23
2022-12-27T17:53:51.507Z,10.90
2022-12-27T17:57:18.580Z,10.88
2022-12-27T18:00:21.433Z,7.43
2022-12-27T18:03:28.998Z,10.43
2022-12-27T18:06:31.836Z,14.57
2022-12-27T18:09:41.089Z,12.33
2022-12-27T18:12:44.451Z,12.93
2022-12-27T18:15:48.485Z,17.25
2022-12-27T18:18:53.281Z,16.25
2022-12-27T18:21:59.119Z,16.03
2022-12-27T18:25:01.855Z,13.63
2022-12-27T18:28:16.788Z,15.15
2022-12-27T18:31:49.895Z,16.02
2022-12-27T18:34:56.841Z,14.15
2022-12-27T18:37:59.630Z,11.10
2022-12-27T18:41:14.828Z,21.00
2022-12-27T18:44:27.745Z,20.88
2022-12-27T18:47:32.641Z,17.52
2022-12-27T18:50:35.456Z,17.12
2022-12-27T18:53:39.427Z,13.57
2022-12-27T18:56:42.857Z,11.47
2022-12-27T19:00:01.733Z,9.35
2022-12-27T19:03:18.891Z,9.73
2022-12-27T19:06:22.094Z,11.80
2022-12-27T19:09:47.788Z,5.83
2022-12-27T19:12:52.337Z,6.70
2022-12-27T19:15:56.728Z,7.65
2022-12-27T19:19:22.243Z,8.52
2022-12-27T19:22:55.331Z,11.27
2022-12-27T19:26:18.365Z,13.90
2022-12-27T19:29:23.818Z,24.47
2022-12-27T19:32:34.611Z,23.15
2022-12-27T19:35:37.250Z,29.00
2022-12-27T19:38:47.542Z,23.33
2022-12-27T19:41:51.766Z,22.53
2022-12-27T19:44:54.852Z,25.30
2022-12-27T19:47:57.389Z,19.40
2022-12-27T19:51:00.749Z,21.85
2022-12-27T19:54:13.642Z,16.85
2022-12-27T19:57:16.911Z,23.73
2022-12-27T20:00:20.170Z,29.10
2022-12-27T20:03:23.505Z,22.95
2022-12-27T20:06:28.262Z,26.87
2022-12-27T20:09:31.336Z,31.70
2022-12-27T20:12:34.157Z,37.63
2022-12-27T20:15:37.002Z,32.10
2022-12-27T20:18:40.663Z,36.25
2022-12-27T20:21:43.679Z,40.70
2022-12-27T20:24:47.331Z,39.25
2022-12-27T20:27:50.173Z,32.97
2022-12-27T20:30:52.789Z,32.63
2022-12-27T20:33:56.271Z,28.50
2022-12-27T20:37:00.347Z,24.63
2022-12-27T20:40:03.430Z,24.25
2022-12-27T20:43:06.229Z,23.50
2022-12-27T20:46:11.113Z,18.70
2022-12-27T20:49:14.201Z,10.25
2022-12-27T20:52:17.169Z,7.40
2022-12-27T20:55:19.816Z,5.72
2022-12-27T20:58:22.756Z,4.90
2022-12-27T21:01:26.323Z,4.20
2022-12-27T21:04:29.352Z,6.75
2022-12-27T21:07:31.888Z,6.47
2022-12-27T21:10:35.712Z,6.82
2022-12-27T21:13:39.621Z,5.93
2022-12-27T21:16:43.282Z,8.00
2022-12-27T21:19:46.178Z,7.70
2022-12-27T21:22:48.980Z,6.72
2022-12-27T21:25:51.533Z,6.95
2022-12-27T21:28:55.228Z,8.13
2022-12-27T21:31:58.128Z,8.57
2022-12-27T21:35:01.019Z,7.75
2022-12-27T21:38:03.561Z,8.57
2022-12-27T21:41:08.544Z,8.60
2022-12-27T21:44:11.155Z,11.63
2022-12-27T21:47:14.065Z,32.20
2022-12-27T21:50:17.247Z,31.23
2022-12-27T21:53:20.189Z,25.67
2022-12-27T21:56:23.293Z,31.80
2022-12-27T21:59:26.153Z,26.23
2022-12-27T22:02:28.916Z,27.13
2022-12-27T22:05:31.866Z,20.95
2022-12-27T22:08:34.419Z,19.95
2022-12-27T22:11:38.544Z,17.58
2022-12-27T22:14:41.133Z,45.23
2022-12-27T22:17:43.964Z,24.23
2022-12-27T22:20:47.236Z,27.87
2022-12-27T22:23:52.201Z,18.52
2022-12-27T22:26:54.764Z,20.58
2022-12-27T22:29:57.689Z,12.63
2022-12-27T22:33:00.331Z,8.40
2022-12-27T22:36:08.850Z,12.30
2022-12-27T22:39:11.486Z,8.27
2022-12-27T22:42:14.406Z,7.70
2022-12-27T22:45:17.014Z,4.63
2022-12-27T22:48:20.094Z,7.40
2022-12-27T22:51:34.529Z,5.37
2022-12-27T22:55:05.114Z,7.10
2022-12-27T22:57:59.826Z,5.57
2022-12-27T23:01:02.671Z,8.17
2022-12-27T23:04:07.001Z,7.80
2022-12-27T23:07:10.038Z,6.22
2022-12-27T23:10:12.630Z,10.60
2022-12-27T23:13:15.498Z,11.27
2022-12-27T23:16:18.050Z,20.93
2022-12-27T23:19:22.199Z,12.30
2022-12-27T23:22:24.768Z,9.10
2022-12-27T23:25:27.553Z,13.32
2022-12-27T23:28:30.087Z,10.85
2022-12-27T23:31:33.694Z,14.87
2022-12-27T23:34:36.431Z,9.10
2022-12-27T23:37:39.215Z,10.07
2022-12-27T23:40:41.830Z,6.07
2022-12-27T23:43:54.367Z,8.80
2022-12-27T23:46:57.724Z,8.17
2022-12-27T23:50:00.649Z,5.80
2022-12-27T23:53:03.248Z,7.20
2022-12-27T23:56:06.348Z,6.65
2022-12-27T23:59:09.585Z,6.85
